sensor_id;sensor_type;location;lat;lon;timestamp;pressure;altitude;pressure_sealevel;temperature;humidity
6829;BME280;17930;48.592;8.868;2023-04-20T00:01:52;96721.03;;;2.40;100.00
6829;BME280;17930;48.592;8.868;2023-04-20T00:04:19;96719.91;;;2.36;100.00
6829;BME280;17930;48.592;8.868;2023-04-20T00:06:48;96712.41;;;2.35;100.00
6829;BME280;17930;48.592;8.868;2023-04-20T00:09:16;96704.78;;;2.28;100.00
6829;BME280;17930;48.592;8.868;2023-04-20T00:11:43;96709.63;;;2.36;100.00
6829;BME280;17930;48.592;8.868;2023-04-20T00:14:10;96698.44;;;2.42;100.00
6829;BME280;17930;48.592;8.868;2023-04-20T00:16:36;96699.00;;;2.55;100.00
6829;BME280;17930;48.592;8.868;2023-04-20T00:19:03;96696.19;;;2.57;100.00
6829;BME280;17930;48.592;8.868;2023-04-20T00:21:31;96704.50;;;2.59;100.00
6829;BME280;17930;48.592;8.868;2023-04-20T00:23:59;96695.41;;;2.45;100.00
6829;BME280;17930;48.592;8.868;2023-04-20T00:26:26;96684.13;;;2.46;100.00
6829;BME280;17930;48.592;8.868;2023-04-20T00:28:53;96683.38;;;2.68;100.00
6829;BME280;17930;48.592;8.868;2023-04-20T00:31:20;96677.41;;;2.91;100.00
6829;BME280;17930;48.592;8.868;2023-04-20T00:33:46;96674.13;;;2.95;100.00
6829;BME280;17930;48.592;8.868;2023-04-20T00:36:13;96666.44;;;2.84;100.00
6829;BME280;17930;48.592;8.868;2023-04-20T00:38:40;96668.91;;;2.56;100.00
6829;BME280;17930;48.592;8.868;2023-04-20T00:41:08;96672.50;;;2.44;100.00
6829;BME280;17930;48.592;8.868;2023-04-20T00:43:35;96662.28;;;2.49;100.00
6829;BME280;17930;48.592;8.868;2023-04-20T00:46:01;96663.09;;;2.49;100.00
6829;BME280;17930;48.592;8.868;2023-04-20T00:48:28;96660.16;;;2.34;100.00
6829;BME280;17930;48.592;8.868;2023-04-20T00:50:55;96656.16;;;2.38;100.00
6829;BME280;17930;48.592;8.868;2023-04-20T00:53:22;96654.00;;;2.24;100.00
6829;BME280;17930;48.592;8.868;2023-04-20T00:55:49;96652.56;;;2.16;100.00
6829;BME280;17930;48.592;8.868;2023-04-20T00:58:17;96653.19;;;2.01;100.00
6829;BME280;17930;48.592;8.868;2023-04-20T01:03:18;96649.13;;;1.82;100.00
6829;BME280;17930;48.592;8.868;2023-04-20T01:05:46;96641.91;;;1.61;100.00
6829;BME280;17930;48.592;8.868;2023-04-20T01:08:13;96643.47;;;1.62;100.00
6829;BME280;17930;48.592;8.868;2023-04-20T01:10:39;96640.59;;;1.70;100.00
6829;BME280;17930;48.592;8.868;2023-04-20T01:13:06;96633.56;;;1.65;100.00
6829;BME280;17930;48.592;8.868;2023-04-20T01:15:34;96623.97;;;1.72;100.00
6829;BME280;17930;48.592;8.868;2023-04-20T01:18:00;96625.06;;;1.76;100.00
6829;BME280;17930;48.592;8.868;2023-04-20T01:20:28;96619.06;;;1.82;100.00
6829;BME280;17930;48.592;8.868;2023-04-20T01:22:57;96617.94;;;1.78;100.00
6829;BME280;17930;48.592;8.868;2023-04-20T01:25:24;96606.97;;;1.71;100.00
6829;BME280;17930;48.592;8.868;2023-04-20T01:27:50;96610.09;;;1.73;100.00
6829;BME280;17930;48.592;8.868;2023-04-20T01:30:17;96607.81;;;1.54;100.00
6829;BME280;17930;48.592;8.868;2023-04-20T01:32:44;96605.81;;;1.56;100.00
6829;BME280;17930;48.592;8.868;2023-04-20T01:35:15;96607.50;;;1.62;100.00
6829;BME280;17930;48.592;8.868;2023-04-20T01:37:50;96604.22;;;1.55;100.00
6829;BME280;17930;48.592;8.868;2023-04-20T01:40:18;96591.56;;;1.42;100.00
6829;BME280;17930;48.592;8.868;2023-04-20T01:42:45;96591.69;;;1.36;100.00
6829;BME280;17930;48.592;8.868;2023-04-20T01:45:11;96593.34;;;1.30;100.00
6829;BME280;17930;48.592;8.868;2023-04-20T01:47:38;96573.97;;;1.46;100.00
6829;BME280;17930;48.592;8.868;2023-04-20T01:50:05;96585.50;;;1.66;100.00
6829;BME280;17930;48.592;8.868;2023-04-20T01:52:32;96572.75;;;1.59;100.00
6829;BME280;17930;48.592;8.868;2023-04-20T01:54:59;96582.50;;;1.69;100.00
6829;BME280;17930;48.592;8.868;2023-04-20T01:57:26;96574.88;;;1.62;100.00
6829;BME280;17930;48.592;8.868;2023-04-20T01:59:53;96577.31;;;1.46;100.00
6829;BME280;17930;48.592;8.868;2023-04-20T02:02:22;96577.03;;;1.36;100.00
6829;BME280;17930;48.592;8.868;2023-04-20T02:04:49;96569.19;;;1.31;100.00
6829;BME280;17930;48.592;8.868;2023-04-20T02:07:15;96572.75;;;1.19;100.00
6829;BME280;17930;48.592;8.868;2023-04-20T02:09:42;96571.69;;;1.08;100.00
6829;BME280;17930;48.592;8.868;2023-04-20T02:12:09;96568.78;;;1.05;100.00
6829;BME280;17930;48.592;8.868;2023-04-20T02:14:37;96564.41;;;1.05;100.00
6829;BME280;17930;48.592;8.868;2023-04-20T02:17:04;96565.22;;;1.06;100.00
6829;BME280;17930;48.592;8.868;2023-04-20T02:19:31;96560.84;;;1.06;100.00
6829;BME280;17930;48.592;8.868;2023-04-20T02:21:58;96563.81;;;1.21;100.00
6829;BME280;17930;48.592;8.868;2023-04-20T02:24:25;96559.81;;;1.25;100.00
6829;BME280;17930;48.592;8.868;2023-04-20T02:26:52;96550.72;;;1.11;100.00
6829;BME280;17930;48.592;8.868;2023-04-20T02:29:19;96554.94;;;1.06;100.00
6829;BME280;17930;48.592;8.868;2023-04-20T02:31:47;96555.75;;;0.89;100.00
6829;BME280;17930;48.592;8.868;2023-04-20T02:34:13;96557.44;;;0.65;100.00
6829;BME280;17930;48.592;8.868;2023-04-20T02:36:40;96561.06;;;0.40;100.00
6829;BME280;17930;48.592;8.868;2023-04-20T02:39:07;96546.38;;;0.29;100.00
6829;BME280;17930;48.592;8.868;2023-04-20T02:41:34;96537.69;;;0.30;100.00
6829;BME280;17930;48.592;8.868;2023-04-20T02:44:01;96540.81;;;0.32;100.00
6829;BME280;17930;48.592;8.868;2023-04-20T02:46:27;96531.97;;;0.28;100.00
6829;BME280;17930;48.592;8.868;2023-04-20T02:48:55;96546.94;;;0.13;100.00
6829;BME280;17930;48.592;8.868;2023-04-20T02:51:22;96544.78;;;0.10;100.00
6829;BME280;17930;48.592;8.868;2023-04-20T02:53:49;96538.78;;;-0.02;100.00
6829;BME280;17930;48.592;8.868;2023-04-20T02:56:15;96541.72;;;0.02;100.00
6829;BME280;17930;48.592;8.868;2023-04-20T02:58:42;96542.78;;;-0.05;100.00
6829;BME280;17930;48.592;8.868;2023-04-20T03:01:09;96532.44;;;0.01;100.00
6829;BME280;17930;48.592;8.868;2023-04-20T03:03:37;96530.28;;;0.04;100.00
6829;BME280;17930;48.592;8.868;2023-04-20T03:06:06;96530.34;;;0.16;100.00
6829;BME280;17930;48.592;8.868;2023-04-20T03:08:32;96521.59;;;0.41;100.00
6829;BME280;17930;48.592;8.868;2023-04-20T03:10:59;96518.03;;;0.42;100.00
6829;BME280;17930;48.592;8.868;2023-04-20T03:13:26;96514.75;;;0.71;100.00
6829;BME280;17930;48.592;8.868;2023-04-20T03:15:53;96513.44;;;0.80;100.00
6829;BME280;17930;48.592;8.868;2023-04-20T03:18:20;96512.38;;;0.69;100.00
6829;BME280;17930;48.592;8.868;2023-04-20T03:20:49;96509.41;;;0.54;100.00
6829;BME280;17930;48.592;8.868;2023-04-20T03:23:18;96502.34;;;0.50;100.00
6829;BME280;17930;48.592;8.868;2023-04-20T03:25:45;96502.63;;;0.60;100.00
6829;BME280;17930;48.592;8.868;2023-04-20T03:28:13;96500.06;;;0.42;100.00
6829;BME280;17930;48.592;8.868;2023-04-20T03:30:40;96496.56;;;0.54;100.00
6829;BME280;17930;48.592;8.868;2023-04-20T03:33:07;96496.75;;;0.42;100.00
6829;BME280;17930;48.592;8.868;2023-04-20T03:35:33;96496.09;;;0.46;100.00
6829;BME280;17930;48.592;8.868;2023-04-20T03:38:03;96490.09;;;0.52;100.00
6829;BME280;17930;48.592;8.868;2023-04-20T03:40:32;96495.22;;;0.52;100.00
6829;BME280;17930;48.592;8.868;2023-04-20T03:42:58;96501.81;;;0.48;100.00
6829;BME280;17930;48.592;8.868;2023-04-20T03:45:25;96500.44;;;0.46;100.00
6829;BME280;17930;48.592;8.868;2023-04-20T03:47:51;96498.09;;;0.44;100.00
6829;BME280;17930;48.592;8.868;2023-04-20T03:50:18;96496.94;;;0.40;100.00
6829;BME280;17930;48.592;8.868;2023-04-20T03:52:45;96497.22;;;0.32;100.00
6829;BME280;17930;48.592;8.868;2023-04-20T03:55:12;96495.81;;;0.36;100.00
6829;BME280;17930;48.592;8.868;2023-04-20T03:57:39;96492.69;;;0.34;100.00
6829;BME280;17930;48.592;8.868;2023-04-20T04:00:07;96493.53;;;0.28;100.00
6829;BME280;17930;48.592;8.868;2023-04-20T04:02:35;96480.84;;;0.33;100.00
6829;BME280;17930;48.592;8.868;2023-04-20T04:05:01;96487.13;;;0.37;100.00
6829;BME280;17930;48.592;8.868;2023-04-20T04:07:28;96487.13;;;0.37;100.00
6829;BME280;17930;48.592;8.868;2023-04-20T04:09:55;96488.13;;;0.36;100.00
6829;BME280;17930;48.592;8.868;2023-04-20T04:12:21;96483.91;;;0.42;100.00
6829;BME280;17930;48.592;8.868;2023-04-20T04:14:49;96482.28;;;0.47;100.00
6829;BME280;17930;48.592;8.868;2023-04-20T04:17:16;96484.69;;;0.42;100.00
6829;BME280;17930;48.592;8.868;2023-04-20T04:19:43;96480.47;;;0.48;100.00
6829;BME280;17930;48.592;8.868;2023-04-20T04:22:10;96487.41;;;0.47;100.00
6829;BME280;17930;48.592;8.868;2023-04-20T04:24:36;96484.69;;;0.60;100.00
6829;BME280;17930;48.592;8.868;2023-04-20T04:27:03;96485.22;;;0.62;100.00
6829;BME280;17930;48.592;8.868;2023-04-20T04:29:30;96486.88;;;0.56;100.00
6829;BME280;17930;48.592;8.868;2023-04-20T04:32:01;96482.38;;;0.70;100.00
6829;BME280;17930;48.592;8.868;2023-04-20T04:34:28;96481.06;;;0.79;100.00
6829;BME280;17930;48.592;8.868;2023-04-20T04:36:55;96478.22;;;0.87;100.00
6829;BME280;17930;48.592;8.868;2023-04-20T04:39:22;96468.97;;;0.97;100.00
6829;BME280;17930;48.592;8.868;2023-04-20T04:41:49;96478.03;;;1.00;100.00
6829;BME280;17930;48.592;8.868;2023-04-20T04:44:23;96479.16;;;1.03;100.00
6829;BME280;17930;48.592;8.868;2023-04-20T04:46:53;96476.03;;;1.13;100.00
6829;BME280;17930;48.592;8.868;2023-04-20T04:49:21;96473.41;;;1.19;100.00
6829;BME280;17930;48.592;8.868;2023-04-20T04:51:48;96475.41;;;1.17;100.00
6829;BME280;17930;48.592;8.868;2023-04-20T04:54:15;96471.63;;;1.31;100.00
6829;BME280;17930;48.592;8.868;2023-04-20T04:56:42;96469.06;;;1.43;100.00
6829;BME280;17930;48.592;8.868;2023-04-20T04:59:08;96469.13;;;1.65;100.00
6829;BME280;17930;48.592;8.868;2023-04-20T05:01:35;96468.97;;;1.72;100.00
6829;BME280;17930;48.592;8.868;2023-04-20T05:04:02;96465.16;;;2.08;100.00
6829;BME280;17930;48.592;8.868;2023-04-20T05:06:29;96468.41;;;2.15;100.00
6829;BME280;17930;48.592;8.868;2023-04-20T05:08:56;96474.75;;;2.24;100.00
6829;BME280;17930;48.592;8.868;2023-04-20T05:11:23;96476.31;;;2.25;100.00
6829;BME280;17930;48.592;8.868;2023-04-20T05:13:50;96475.38;;;2.43;100.00
6829;BME280;17930;48.592;8.868;2023-04-20T05:16:17;96473.69;;;2.48;100.00
6829;BME280;17930;48.592;8.868;2023-04-20T05:18:43;96477.53;;;2.73;100.00
6829;BME280;17930;48.592;8.868;2023-04-20T05:21:10;96481.59;;;2.97;100.00
6829;BME280;17930;48.592;8.868;2023-04-20T05:23:38;96477.72;;;3.11;100.00
6829;BME280;17930;48.592;8.868;2023-04-20T05:26:04;96471.63;;;3.33;100.00
6829;BME280;17930;48.592;8.868;2023-04-20T05:28:32;96467.81;;;3.36;100.00
6829;BME280;17930;48.592;8.868;2023-04-20T05:30:58;96471.38;;;3.46;100.00
6829;BME280;17930;48.592;8.868;2023-04-20T05:33:25;96467.53;;;3.65;100.00
6829;BME280;17930;48.592;8.868;2023-04-20T05:35:54;96469.00;;;3.77;100.00
6829;BME280;17930;48.592;8.868;2023-04-20T05:38:21;96470.53;;;3.78;100.00
6829;BME280;17930;48.592;8.868;2023-04-20T05:40:49;96465.09;;;3.75;100.00
6829;BME280;17930;48.592;8.868;2023-04-20T05:43:16;96471.50;;;3.72;100.00
6829;BME280;17930;48.592;8.868;2023-04-20T05:45:43;96479.00;;;3.41;100.00
6829;BME280;17930;48.592;8.868;2023-04-20T05:48:11;96474.16;;;3.61;100.00
6829;BME280;17930;48.592;8.868;2023-04-20T05:50:37;96470.44;;;3.90;100.00
6829;BME280;17930;48.592;8.868;2023-04-20T05:53:04;96470.44;;;3.90;100.00
6829;BME280;17930;48.592;8.868;2023-04-20T05:55:31;96469.31;;;3.64;100.00
6829;BME280;17930;48.592;8.868;2023-04-20T05:57:59;96478.19;;;3.90;100.00
6829;BME280;17930;48.592;8.868;2023-04-20T06:00:25;96478.16;;;4.22;100.00
6829;BME280;17930;48.592;8.868;2023-04-20T06:02:52;96481.03;;;4.47;100.00
6829;BME280;17930;48.592;8.868;2023-04-20T06:05:19;96469.44;;;4.92;100.00
6829;BME280;17930;48.592;8.868;2023-04-20T06:07:46;96473.75;;;5.39;100.00
6829;BME280;17930;48.592;8.868;2023-04-20T06:10:13;96477.38;;;6.06;100.00
6829;BME280;17930;48.592;8.868;2023-04-20T06:12:39;96467.34;;;6.75;100.00
6829;BME280;17930;48.592;8.868;2023-04-20T06:15:08;96475.84;;;6.61;100.00
6829;BME280;17930;48.592;8.868;2023-04-20T06:17:35;96478.53;;;5.83;100.00
6829;BME280;17930;48.592;8.868;2023-04-20T06:20:05;96479.66;;;5.97;100.00
6829;BME280;17930;48.592;8.868;2023-04-20T06:22:33;96483.31;;;5.70;100.00
6829;BME280;17930;48.592;8.868;2023-04-20T06:25:00;96479.63;;;5.30;100.00
6829;BME280;17930;48.592;8.868;2023-04-20T06:27:27;96474.16;;;5.84;100.00
6829;BME280;17930;48.592;8.868;2023-04-20T06:29:53;96465.97;;;6.02;100.00
6829;BME280;17930;48.592;8.868;2023-04-20T06:32:22;96459.81;;;6.12;100.00
6829;BME280;17930;48.592;8.868;2023-04-20T06:34:48;96465.50;;;6.56;100.00
6829;BME280;17930;48.592;8.868;2023-04-20T06:37:16;96459.59;;;6.70;100.00
6829;BME280;17930;48.592;8.868;2023-04-20T06:39:43;96458.63;;;7.06;100.00
6829;BME280;17930;48.592;8.868;2023-04-20T06:42:10;96459.44;;;7.11;100.00
6829;BME280;17930;48.592;8.868;2023-04-20T06:44:36;96461.78;;;7.32;100.00
6829;BME280;17930;48.592;8.868;2023-04-20T06:47:03;96459.69;;;7.24;100.00
6829;BME280;17930;48.592;8.868;2023-04-20T06:49:31;96458.72;;;6.50;100.00
6829;BME280;17930;48.592;8.868;2023-04-20T06:51:58;96451.78;;;6.60;100.00
6829;BME280;17930;48.592;8.868;2023-04-20T06:54:25;96449.84;;;7.07;100.00
6829;BME280;17930;48.592;8.868;2023-04-20T06:56:52;96442.84;;;7.76;100.00
6829;BME280;17930;48.592;8.868;2023-04-20T06:59:18;96443.63;;;7.92;100.00
6829;BME280;17930;48.592;8.868;2023-04-20T07:01:45;96439.28;;;8.65;100.00
6829;BME280;17930;48.592;8.868;2023-04-20T07:04:11;96442.28;;;8.09;100.00
6829;BME280;17930;48.592;8.868;2023-04-20T07:06:39;96441.53;;;8.04;100.00
6829;BME280;17930;48.592;8.868;2023-04-20T07:09:06;96445.72;;;7.80;100.00
6829;BME280;17930;48.592;8.868;2023-04-20T07:11:39;96438.41;;;8.07;100.00
6829;BME280;17930;48.592;8.868;2023-04-20T07:14:05;96434.81;;;7.93;100.00
6829;BME280;17930;48.592;8.868;2023-04-20T07:16:32;96427.47;;;8.24;100.00
6829;BME280;17930;48.592;8.868;2023-04-20T07:18:59;96423.16;;;10.11;100.00
6829;BME280;17930;48.592;8.868;2023-04-20T07:21:25;96425.66;;;9.31;100.00
6829;BME280;17930;48.592;8.868;2023-04-20T07:23:53;96419.59;;;10.02;100.00
6829;BME280;17930;48.592;8.868;2023-04-20T07:26:20;96420.25;;;9.84;100.00
6829;BME280;17930;48.592;8.868;2023-04-20T07:28:50;96420.06;;;10.09;100.00
6829;BME280;17930;48.592;8.868;2023-04-20T07:31:17;96413.38;;;9.98;100.00
6829;BME280;17930;48.592;8.868;2023-04-20T07:33:47;96410.94;;;10.06;100.00
6829;BME280;17930;48.592;8.868;2023-04-20T07:36:14;96416.56;;;11.38;100.00
6829;BME280;17930;48.592;8.868;2023-04-20T07:38:41;96405.28;;;12.73;100.00
6829;BME280;17930;48.592;8.868;2023-04-20T07:41:09;96415.69;;;11.92;100.00
6829;BME280;17930;48.592;8.868;2023-04-20T07:43:36;96412.38;;;11.37;100.00
6829;BME280;17930;48.592;8.868;2023-04-20T07:46:03;96408.25;;;11.18;100.00
6829;BME280;17930;48.592;8.868;2023-04-20T07:48:30;96407.84;;;11.11;100.00
6829;BME280;17930;48.592;8.868;2023-04-20T07:50:57;96424.00;;;10.53;100.00
6829;BME280;17930;48.592;8.868;2023-04-20T07:53:24;96434.78;;;9.95;100.00
6829;BME280;17930;48.592;8.868;2023-04-20T07:55:51;96427.31;;;9.12;100.00
6829;BME280;17930;48.592;8.868;2023-04-20T07:58:19;96429.81;;;8.84;100.00
6829;BME280;17930;48.592;8.868;2023-04-20T08:00:46;96427.09;;;9.04;100.00
6829;BME280;17930;48.592;8.868;2023-04-20T08:03:13;96422.94;;;9.08;100.00
6829;BME280;17930;48.592;8.868;2023-04-20T08:05:40;96421.97;;;8.94;100.00
6829;BME280;17930;48.592;8.868;2023-04-20T08:08:06;96424.34;;;8.85;100.00
6829;BME280;17930;48.592;8.868;2023-04-20T08:10:33;96422.66;;;8.66;100.00
6829;BME280;17930;48.592;8.868;2023-04-20T08:13:00;96421.59;;;8.67;100.00
6829;BME280;17930;48.592;8.868;2023-04-20T08:15:28;96418.72;;;8.68;100.00
6829;BME280;17930;48.592;8.868;2023-04-20T08:17:55;96431.84;;;8.44;100.00
6829;BME280;17930;48.592;8.868;2023-04-20T08:20:21;96429.53;;;8.32;100.00
6829;BME280;17930;48.592;8.868;2023-04-20T08:22:48;96425.94;;;7.94;100.00
6829;BME280;17930;48.592;8.868;2023-04-20T08:25:17;96425.50;;;7.67;100.00
6829;BME280;17930;48.592;8.868;2023-04-20T08:27:43;96430.16;;;7.60;100.00
6829;BME280;17930;48.592;8.868;2023-04-20T08:30:11;96423.41;;;7.49;100.00
6829;BME280;17930;48.592;8.868;2023-04-20T08:32:39;96422.88;;;7.22;100.00
6829;BME280;17930;48.592;8.868;2023-04-20T08:35:06;96425.22;;;7.14;100.00
6829;BME280;17930;48.592;8.868;2023-04-20T08:37:33;96425.47;;;7.17;100.00
6829;BME280;17930;48.592;8.868;2023-04-20T08:39:59;96419.25;;;7.04;100.00
6829;BME280;17930;48.592;8.868;2023-04-20T08:42:27;96418.94;;;6.90;100.00
6829;BME280;17930;48.592;8.868;2023-04-20T08:44:53;96422.59;;;6.94;100.00
6829;BME280;17930;48.592;8.868;2023-04-20T08:47:20;96421.78;;;6.89;100.00
6829;BME280;17930;48.592;8.868;2023-04-20T08:49:50;96420.22;;;6.88;100.00
6829;BME280;17930;48.592;8.868;2023-04-20T08:52:18;96416.34;;;6.75;100.00
6829;BME280;17930;48.592;8.868;2023-04-20T08:54:44;96419.19;;;6.74;100.00
6829;BME280;17930;48.592;8.868;2023-04-20T08:57:11;96422.78;;;6.63;100.00
6829;BME280;17930;48.592;8.868;2023-04-20T08:59:38;96415.22;;;6.52;100.00
6829;BME280;17930;48.592;8.868;2023-04-20T09:02:08;96427.41;;;6.56;100.00
6829;BME280;17930;48.592;8.868;2023-04-20T09:04:36;96425.28;;;6.43;100.00
6829;BME280;17930;48.592;8.868;2023-04-20T09:07:04;96424.78;;;6.41;100.00
6829;BME280;17930;48.592;8.868;2023-04-20T09:09:31;96421.63;;;6.34;100.00
6829;BME280;17930;48.592;8.868;2023-04-20T09:11:59;96422.56;;;6.13;100.00
6829;BME280;17930;48.592;8.868;2023-04-20T09:14:28;96413.06;;;6.29;100.00
6829;BME280;17930;48.592;8.868;2023-04-20T09:16:56;96422.09;;;6.26;100.00
6829;BME280;17930;48.592;8.868;2023-04-20T09:19:27;96413.06;;;6.29;100.00
6829;BME280;17930;48.592;8.868;2023-04-20T09:21:55;96413.31;;;6.32;100.00
6829;BME280;17930;48.592;8.868;2023-04-20T09:24:30;96409.78;;;6.53;100.00
6829;BME280;17930;48.592;8.868;2023-04-20T09:26:57;96401.44;;;6.36;100.00
6829;BME280;17930;48.592;8.868;2023-04-20T09:29:24;96414.47;;;6.66;100.00
6829;BME280;17930;48.592;8.868;2023-04-20T09:31:51;96411.88;;;6.56;100.00
6829;BME280;17930;48.592;8.868;2023-04-20T09:34:19;96414.13;;;6.38;100.00
6829;BME280;17930;48.592;8.868;2023-04-20T09:36:47;96408.91;;;6.28;100.00
6829;BME280;17930;48.592;8.868;2023-04-20T09:39:16;96408.19;;;6.42;100.00
6829;BME280;17930;48.592;8.868;2023-04-20T09:41:45;96406.69;;;6.56;100.00
6829;BME280;17930;48.592;8.868;2023-04-20T09:44:13;96402.00;;;6.58;100.00
6829;BME280;17930;48.592;8.868;2023-04-20T09:46:41;96396.66;;;6.94;100.00
6829;BME280;17930;48.592;8.868;2023-04-20T09:49:09;96393.53;;;6.87;100.00
6829;BME280;17930;48.592;8.868;2023-04-20T09:51:38;96397.69;;;6.93;100.00
6829;BME280;17930;48.592;8.868;2023-04-20T09:54:07;96396.94;;;7.22;100.00
6829;BME280;17930;48.592;8.868;2023-04-20T09:56:34;96403.69;;;7.18;100.00
6829;BME280;17930;48.592;8.868;2023-04-20T09:59:02;96399.53;;;7.22;100.00
6829;BME280;17930;48.592;8.868;2023-04-20T10:01:29;96402.13;;;7.42;100.00
6829;BME280;17930;48.592;8.868;2023-04-20T10:03:59;96390.19;;;7.66;100.00
6829;BME280;17930;48.592;8.868;2023-04-20T10:06:29;96379.78;;;7.76;100.00
6829;BME280;17930;48.592;8.868;2023-04-20T10:08:56;96381.81;;;7.99;100.00
6829;BME280;17930;48.592;8.868;2023-04-20T10:11:28;96381.00;;;8.18;100.00
6829;BME280;17930;48.592;8.868;2023-04-20T10:13:55;96373.38;;;8.41;100.00
6829;BME280;17930;48.592;8.868;2023-04-20T10:16:23;96372.38;;;8.32;100.00
6829;BME280;17930;48.592;8.868;2023-04-20T10:19:02;96366.16;;;8.28;100.00
6829;BME280;17930;48.592;8.868;2023-04-20T10:21:29;96360.38;;;8.41;100.00
6829;BME280;17930;48.592;8.868;2023-04-20T10:23:58;96352.22;;;8.63;100.00
6829;BME280;17930;48.592;8.868;2023-04-20T10:26:34;96351.44;;;8.62;100.00
6829;BME280;17930;48.592;8.868;2023-04-20T10:29:02;96353.50;;;8.65;100.00
6829;BME280;17930;48.592;8.868;2023-04-20T10:31:35;96349.44;;;8.44;100.00
6829;BME280;17930;48.592;8.868;2023-04-20T10:34:04;96343.81;;;8.32;100.00
6829;BME280;17930;48.592;8.868;2023-04-20T10:36:35;96354.38;;;8.46;100.00
6829;BME280;17930;48.592;8.868;2023-04-20T10:39:13;96354.97;;;8.38;100.00
6829;BME280;17930;48.592;8.868;2023-04-20T10:41:51;96340.84;;;8.49;100.00
6829;BME280;17930;48.592;8.868;2023-04-20T10:44:18;96338.41;;;8.67;100.00
6829;BME280;17930;48.592;8.868;2023-04-20T10:46:48;96340.91;;;8.82;100.00
6829;BME280;17930;48.592;8.868;2023-04-20T10:49:15;96335.78;;;8.72;100.00
6829;BME280;17930;48.592;8.868;2023-04-20T10:51:46;96347.69;;;8.83;100.00
6829;BME280;17930;48.592;8.868;2023-04-20T10:54:13;96333.47;;;9.04;100.00
6829;BME280;17930;48.592;8.868;2023-04-20T10:56:41;96332.75;;;9.26;100.00
6829;BME280;17930;48.592;8.868;2023-04-20T10:59:09;96331.72;;;9.27;100.00
6829;BME280;17930;48.592;8.868;2023-04-20T11:01:36;96327.34;;;8.90;100.00
6829;BME280;17930;48.592;8.868;2023-04-20T11:04:04;96335.03;;;8.67;100.00
6829;BME280;17930;48.592;8.868;2023-04-20T11:06:31;96328.53;;;8.64;100.00
6829;BME280;17930;48.592;8.868;2023-04-20T11:08:58;96330.66;;;8.57;100.00
6829;BME280;17930;48.592;8.868;2023-04-20T11:11:26;96317.19;;;8.93;100.00
6829;BME280;17930;48.592;8.868;2023-04-20T11:14:04;96336.00;;;9.14;100.00
6829;BME280;17930;48.592;8.868;2023-04-20T11:16:32;96344.34;;;9.11;100.00
6829;BME280;17930;48.592;8.868;2023-04-20T11:18:58;96354.34;;;8.94;100.00
6829;BME280;17930;48.592;8.868;2023-04-20T11:21:35;96355.88;;;8.62;100.00
6829;BME280;17930;48.592;8.868;2023-04-20T11:24:03;96360.47;;;8.21;100.00
6829;BME280;17930;48.592;8.868;2023-04-20T11:26:35;96356.88;;;8.13;100.00
6829;BME280;17930;48.592;8.868;2023-04-20T11:29:02;96353.22;;;8.18;100.00
6829;BME280;17930;48.592;8.868;2023-04-20T11:31:29;96341.25;;;8.22;100.00
6829;BME280;17930;48.592;8.868;2023-04-20T11:33:55;96342.41;;;8.50;100.00
6829;BME280;17930;48.592;8.868;2023-04-20T11:36:24;96335.78;;;8.72;100.00
6829;BME280;17930;48.592;8.868;2023-04-20T11:38:54;96347.75;;;8.73;100.00
6829;BME280;17930;48.592;8.868;2023-04-20T11:41:21;96342.81;;;8.23;100.00
6829;BME280;17930;48.592;8.868;2023-04-20T11:43:48;96340.22;;;8.18;100.00
6829;BME280;17930;48.592;8.868;2023-04-20T11:46:16;96343.88;;;8.08;100.00
6829;BME280;17930;48.592;8.868;2023-04-20T11:48:44;96341.91;;;7.80;100.00
6829;BME280;17930;48.592;8.868;2023-04-20T11:51:11;96350.75;;;7.54;100.00
6829;BME280;17930;48.592;8.868;2023-04-20T11:53:38;96351.03;;;7.23;100.00
6829;BME280;17930;48.592;8.868;2023-04-20T11:56:07;96344.31;;;7.32;100.00
6829;BME280;17930;48.592;8.868;2023-04-20T11:58:34;96340.94;;;7.26;100.00
6829;BME280;17930;48.592;8.868;2023-04-20T12:01:01;96339.91;;;7.47;100.00
6829;BME280;17930;48.592;8.868;2023-04-20T12:03:29;96326.59;;;7.63;100.00
6829;BME280;17930;48.592;8.868;2023-04-20T12:05:55;96331.28;;;7.66;100.00
6829;BME280;17930;48.592;8.868;2023-04-20T12:08:22;96330.50;;;7.66;100.00
6829;BME280;17930;48.592;8.868;2023-04-20T12:10:51;96337.78;;;7.44;100.00
6829;BME280;17930;48.592;8.868;2023-04-20T12:13:19;96336.78;;;7.15;100.00
6829;BME280;17930;48.592;8.868;2023-04-20T12:15:45;96326.16;;;7.17;100.00
6829;BME280;17930;48.592;8.868;2023-04-20T12:18:12;96329.78;;;7.21;100.00
6829;BME280;17930;48.592;8.868;2023-04-20T12:20:39;96328.50;;;7.23;100.00
6829;BME280;17930;48.592;8.868;2023-04-20T12:23:09;96333.69;;;7.13;100.00
6829;BME280;17930;48.592;8.868;2023-04-20T12:25:35;96334.72;;;7.22;100.00
6829;BME280;17930;48.592;8.868;2023-04-20T12:28:02;96326.16;;;7.27;100.00
6829;BME280;17930;48.592;8.868;2023-04-20T12:30:32;96318.38;;;7.32;100.00
6829;BME280;17930;48.592;8.868;2023-04-20T12:33:00;96320.72;;;7.04;100.00
6829;BME280;17930;48.592;8.868;2023-04-20T12:35:31;96324.34;;;7.03;100.00
6829;BME280;17930;48.592;8.868;2023-04-20T12:37:57;96330.56;;;7.07;100.00
6829;BME280;17930;48.592;8.868;2023-04-20T12:40:24;96325.13;;;7.28;100.00
6829;BME280;17930;48.592;8.868;2023-04-20T12:42:51;96325.63;;;7.40;100.00
6829;BME280;17930;48.592;8.868;2023-04-20T12:45:18;96321.72;;;7.42;100.00
6829;BME280;17930;48.592;8.868;2023-04-20T12:47:46;96305.38;;;7.47;100.00
6829;BME280;17930;48.592;8.868;2023-04-20T12:50:12;96298.66;;;7.31;100.00
6829;BME280;17930;48.592;8.868;2023-04-20T12:52:39;96301.78;;;7.28;100.00
6829;BME280;17930;48.592;8.868;2023-04-20T12:55:06;96301.78;;;7.18;100.00
6829;BME280;17930;48.592;8.868;2023-04-20T12:57:33;96312.41;;;7.21;100.00
6829;BME280;17930;48.592;8.868;2023-04-20T13:00:00;96312.41;;;7.31;100.00
6829;BME280;17930;48.592;8.868;2023-04-20T13:02:27;96322.78;;;7.21;100.00
6829;BME280;17930;48.592;8.868;2023-04-20T13:04:55;96316.03;;;7.30;100.00
6829;BME280;17930;48.592;8.868;2023-04-20T13:07:23;96320.69;;;7.28;100.00
6829;BME280;17930;48.592;8.868;2023-04-20T13:09:50;96313.94;;;7.52;100.00
6829;BME280;17930;48.592;8.868;2023-04-20T13:12:17;96316.00;;;7.60;100.00
6829;BME280;17930;48.592;8.868;2023-04-20T13:14:43;96307.09;;;7.81;100.00